sensor_id;sensor_type;location;lat;lon;timestamp;P1;durP1;ratioP1;P2;durP2;ratioP2
1753;SDS011;58380;48.312;9.246;2023-02-28T07:52:32;16.92;;;10.10;;
1753;SDS011;58380;48.312;9.246;2023-02-28T07:54:57;15.88;;;9.82;;
1753;SDS011;58380;48.312;9.246;2023-02-28T07:57:23;19.37;;;10.47;;
1753;SDS011;58380;48.312;9.246;2023-02-28T07:59:48;17.03;;;9.70;;
1753;SDS011;58380;48.312;9.246;2023-02-28T08:02:14;17.10;;;10.33;;
1753;SDS011;58380;48.312;9.246;2023-02-28T08:04:41;20.02;;;11.35;;
1753;SDS011;58380;48.312;9.246;2023-02-28T08:07:07;16.27;;;9.38;;
1753;SDS011;58380;48.312;9.246;2023-02-28T08:09:33;15.00;;;9.10;;
1753;SDS011;58380;48.312;9.246;2023-02-28T08:14:24;15.27;;;8.95;;
1753;SDS011;58380;48.312;9.246;2023-02-28T08:16:50;20.63;;;9.23;;
1753;SDS011;58380;48.312;9.246;2023-02-28T08:19:15;18.00;;;10.20;;
1753;SDS011;58380;48.312;9.246;2023-02-28T08:21:41;16.55;;;9.98;;
1753;SDS011;58380;48.312;9.246;2023-02-28T08:24:06;17.30;;;9.93;;
1753;SDS011;58380;48.312;9.246;2023-02-28T08:26:32;21.83;;;10.98;;
1753;SDS011;58380;48.312;9.246;2023-02-28T08:28:57;17.00;;;10.33;;
1753;SDS011;58380;48.312;9.246;2023-02-28T08:31:23;18.45;;;10.38;;
1753;SDS011;58380;48.312;9.246;2023-02-28T08:33:49;17.15;;;10.30;;
1753;SDS011;58380;48.312;9.246;2023-02-28T08:36:16;17.52;;;10.57;;
1753;SDS011;58380;48.312;9.246;2023-02-28T08:38:42;19.23;;;10.82;;
1753;SDS011;58380;48.312;9.246;2023-02-28T08:41:09;19.98;;;11.43;;
1753;SDS011;58380;48.312;9.246;2023-02-28T08:43:37;18.20;;;9.43;;
1753;SDS011;58380;48.312;9.246;2023-02-28T08:46:04;19.27;;;10.45;;
1753;SDS011;58380;48.312;9.246;2023-02-28T08:48:31;17.23;;;9.98;;
1753;SDS011;58380;48.312;9.246;2023-02-28T08:51:01;18.02;;;10.23;;
1753;SDS011;58380;48.312;9.246;2023-02-28T08:53:31;19.13;;;11.05;;
1753;SDS011;58380;48.312;9.246;2023-02-28T08:55:57;19.52;;;10.55;;
1753;SDS011;58380;48.312;9.246;2023-02-28T08:58:29;18.85;;;10.63;;
1753;SDS011;58380;48.312;9.246;2023-02-28T09:00:54;19.45;;;11.05;;
1753;SDS011;58380;48.312;9.246;2023-02-28T09:03:20;20.95;;;10.18;;
1753;SDS011;58380;48.312;9.246;2023-02-28T09:05:54;17.52;;;10.68;;
1753;SDS011;58380;48.312;9.246;2023-02-28T09:08:29;19.52;;;11.57;;
1753;SDS011;58380;48.312;9.246;2023-02-28T09:10:56;19.85;;;11.10;;
1753;SDS011;58380;48.312;9.246;2023-02-28T09:13:23;19.45;;;10.90;;
1753;SDS011;58380;48.312;9.246;2023-02-28T09:15:52;18.40;;;10.00;;
1753;SDS011;58380;48.312;9.246;2023-02-28T09:18:22;18.92;;;9.82;;
1753;SDS011;58380;48.312;9.246;2023-02-28T09:20:47;17.13;;;10.10;;
1753;SDS011;58380;48.312;9.246;2023-02-28T09:23:13;19.53;;;10.20;;
1753;SDS011;58380;48.312;9.246;2023-02-28T09:25:44;17.75;;;10.40;;
1753;SDS011;58380;48.312;9.246;2023-02-28T09:28:18;19.17;;;11.25;;
1753;SDS011;58380;48.312;9.246;2023-02-28T09:30:46;19.83;;;10.50;;
1753;SDS011;58380;48.312;9.246;2023-02-28T09:33:14;18.60;;;10.98;;
1753;SDS011;58380;48.312;9.246;2023-02-28T09:35:41;18.70;;;10.95;;
1753;SDS011;58380;48.312;9.246;2023-02-28T09:40:38;17.63;;;10.07;;
1753;SDS011;58380;48.312;9.246;2023-02-28T09:43:15;17.35;;;10.35;;
1753;SDS011;58380;48.312;9.246;2023-02-28T09:45:48;16.77;;;10.15;;
1753;SDS011;58380;48.312;9.246;2023-02-28T09:48:27;20.42;;;9.98;;
1753;SDS011;58380;48.312;9.246;2023-02-28T09:51:05;19.13;;;10.20;;
1753;SDS011;58380;48.312;9.246;2023-02-28T09:53:48;27.40;;;11.75;;
1753;SDS011;58380;48.312;9.246;2023-02-28T09:56:15;19.65;;;11.02;;
1753;SDS011;58380;48.312;9.246;2023-02-28T09:58:54;20.73;;;11.27;;
1753;SDS011;58380;48.312;9.246;2023-02-28T10:01:53;19.02;;;10.40;;
1753;SDS011;58380;48.312;9.246;2023-02-28T10:04:55;17.92;;;11.05;;
1753;SDS011;58380;48.312;9.246;2023-02-28T10:10:41;16.58;;;9.50;;
1753;SDS011;58380;48.312;9.246;2023-02-28T10:13:30;17.30;;;10.32;;
1753;SDS011;58380;48.312;9.246;2023-02-28T10:16:06;18.80;;;10.40;;
1753;SDS011;58380;48.312;9.246;2023-02-28T10:18:43;18.75;;;9.95;;
1753;SDS011;58380;48.312;9.246;2023-02-28T10:21:24;16.10;;;9.23;;
1753;SDS011;58380;48.312;9.246;2023-02-28T10:24:13;21.25;;;10.80;;
1753;SDS011;58380;48.312;9.246;2023-02-28T10:26:56;17.10;;;10.15;;
1753;SDS011;58380;48.312;9.246;2023-02-28T10:29:55;18.92;;;10.57;;
1753;SDS011;58380;48.312;9.246;2023-02-28T10:32:27;18.38;;;9.95;;
1753;SDS011;58380;48.312;9.246;2023-02-28T10:37:36;17.30;;;10.68;;
1753;SDS011;58380;48.312;9.246;2023-02-28T10:40:05;19.50;;;10.38;;
1753;SDS011;58380;48.312;9.246;2023-02-28T10:42:56;19.38;;;10.90;;
1753;SDS011;58380;48.312;9.246;2023-02-28T10:45:26;22.20;;;10.98;;
1753;SDS011;58380;48.312;9.246;2023-02-28T10:48:32;19.58;;;10.52;;
1753;SDS011;58380;48.312;9.246;2023-02-28T10:51:07;17.52;;;10.38;;
1753;SDS011;58380;48.312;9.246;2023-02-28T10:53:45;17.48;;;9.73;;
1753;SDS011;58380;48.312;9.246;2023-02-28T10:56:16;18.98;;;10.45;;
1753;SDS011;58380;48.312;9.246;2023-02-28T11:01:23;21.10;;;10.18;;
1753;SDS011;58380;48.312;9.246;2023-02-28T11:07:20;15.38;;;9.32;;
1753;SDS011;58380;48.312;9.246;2023-02-28T11:09:59;17.05;;;9.82;;
1753;SDS011;58380;48.312;9.246;2023-02-28T11:15:14;16.77;;;9.15;;
1753;SDS011;58380;48.312;9.246;2023-02-28T11:17:59;15.23;;;9.05;;
1753;SDS011;58380;48.312;9.246;2023-02-28T11:20:50;18.55;;;8.93;;
1753;SDS011;58380;48.312;9.246;2023-02-28T11:23:18;15.52;;;9.20;;
1753;SDS011;58380;48.312;9.246;2023-02-28T11:25:52;15.82;;;9.25;;
1753;SDS011;58380;48.312;9.246;2023-02-28T11:28:40;14.63;;;8.53;;
1753;SDS011;58380;48.312;9.246;2023-02-28T11:36:22;15.65;;;9.13;;
1753;SDS011;58380;48.312;9.246;2023-02-28T11:38:54;16.42;;;9.40;;
1753;SDS011;58380;48.312;9.246;2023-02-28T11:44:58;18.75;;;10.05;;
1753;SDS011;58380;48.312;9.246;2023-02-28T11:52:56;14.10;;;8.68;;
1753;SDS011;58380;48.312;9.246;2023-02-28T11:55:36;15.73;;;8.45;;
1753;SDS011;58380;48.312;9.246;2023-02-28T12:07:00;15.93;;;9.18;;
1753;SDS011;58380;48.312;9.246;2023-02-28T12:09:36;17.02;;;7.85;;
1753;SDS011;58380;48.312;9.246;2023-02-28T12:15:38;14.35;;;7.35;;
1753;SDS011;58380;48.312;9.246;2023-02-28T12:27:27;14.70;;;7.63;;
1753;SDS011;58380;48.312;9.246;2023-02-28T12:30:00;15.23;;;6.80;;
1753;SDS011;58380;48.312;9.246;2023-02-28T12:32:41;12.10;;;6.40;;
1753;SDS011;58380;48.312;9.246;2023-02-28T12:35:16;16.42;;;7.20;;
1753;SDS011;58380;48.312;9.246;2023-02-28T12:37:50;12.68;;;6.85;;
1753;SDS011;58380;48.312;9.246;2023-02-28T12:40:28;15.80;;;7.65;;
1753;SDS011;58380;48.312;9.246;2023-02-28T12:43:09;14.07;;;7.75;;
1753;SDS011;58380;48.312;9.246;2023-02-28T12:45:50;15.35;;;8.00;;
1753;SDS011;58380;48.312;9.246;2023-02-28T12:48:25;16.83;;;7.13;;
1753;SDS011;58380;48.312;9.246;2023-02-28T12:51:02;15.75;;;8.10;;
1753;SDS011;58380;48.312;9.246;2023-02-28T13:10:49;17.30;;;8.48;;
1753;SDS011;58380;48.312;9.246;2023-02-28T13:13:20;15.30;;;8.23;;
1753;SDS011;58380;48.312;9.246;2023-02-28T13:18:38;15.93;;;8.45;;
1753;SDS011;58380;48.312;9.246;2023-02-28T13:21:10;18.10;;;7.93;;
1753;SDS011;58380;48.312;9.246;2023-02-28T13:27:11;15.93;;;8.00;;
1753;SDS011;58380;48.312;9.246;2023-02-28T13:39:55;13.65;;;7.22;;
1753;SDS011;58380;48.312;9.246;2023-02-28T13:42:48;13.48;;;7.50;;
1753;SDS011;58380;48.312;9.246;2023-02-28T13:58:50;15.63;;;8.00;;
1753;SDS011;58380;48.312;9.246;2023-02-28T14:01:37;14.65;;;8.63;;
1753;SDS011;58380;48.312;9.246;2023-02-28T14:07:32;15.00;;;7.68;;
1753;SDS011;58380;48.312;9.246;2023-02-28T14:10:15;15.98;;;8.30;;
1753;SDS011;58380;48.312;9.246;2023-02-28T14:12:55;14.35;;;8.32;;
1753;SDS011;58380;48.312;9.246;2023-02-28T14:15:30;15.55;;;8.27;;
1753;SDS011;58380;48.312;9.246;2023-02-28T14:18:24;11.40;;;7.05;;
1753;SDS011;58380;48.312;9.246;2023-02-28T14:30:03;17.30;;;9.32;;
1753;SDS011;58380;48.312;9.246;2023-02-28T14:33:04;15.25;;;8.10;;
1753;SDS011;58380;48.312;9.246;2023-02-28T14:35:56;15.40;;;7.43;;
1753;SDS011;58380;48.312;9.246;2023-02-28T14:38:33;11.85;;;6.80;;
1753;SDS011;58380;48.312;9.246;2023-02-28T14:44:00;17.95;;;7.75;;
1753;SDS011;58380;48.312;9.246;2023-02-28T14:46:35;20.02;;;7.97;;
1753;SDS011;58380;48.312;9.246;2023-02-28T14:51:32;14.60;;;7.70;;
1753;SDS011;58380;48.312;9.246;2023-02-28T14:53:59;12.73;;;7.30;;
1753;SDS011;58380;48.312;9.246;2023-02-28T14:56:32;13.27;;;7.38;;
1753;SDS011;58380;48.312;9.246;2023-02-28T14:59:02;16.05;;;7.47;;
1753;SDS011;58380;48.312;9.246;2023-02-28T15:01:29;14.35;;;7.75;;
1753;SDS011;58380;48.312;9.246;2023-02-28T15:03:59;13.50;;;7.38;;
1753;SDS011;58380;48.312;9.246;2023-02-28T15:06:31;13.00;;;7.18;;
1753;SDS011;58380;48.312;9.246;2023-02-28T15:09:13;14.05;;;7.10;;
1753;SDS011;58380;48.312;9.246;2023-02-28T15:11:42;16.13;;;7.90;;
1753;SDS011;58380;48.312;9.246;2023-02-28T15:14:19;14.57;;;8.05;;
1753;SDS011;58380;48.312;9.246;2023-02-28T15:16:51;12.93;;;7.75;;
1753;SDS011;58380;48.312;9.246;2023-02-28T15:19:32;12.52;;;7.13;;
1753;SDS011;58380;48.312;9.246;2023-02-28T15:22:11;13.30;;;7.43;;
1753;SDS011;58380;48.312;9.246;2023-02-28T15:24:45;13.63;;;7.45;;
1753;SDS011;58380;48.312;9.246;2023-02-28T15:27:20;12.02;;;6.68;;
1753;SDS011;58380;48.312;9.246;2023-02-28T15:29:56;14.00;;;7.32;;
1753;SDS011;58380;48.312;9.246;2023-02-28T15:32:29;13.55;;;6.80;;
1753;SDS011;58380;48.312;9.246;2023-02-28T15:37:52;16.92;;;7.70;;
1753;SDS011;58380;48.312;9.246;2023-02-28T15:40:37;14.95;;;8.00;;
1753;SDS011;58380;48.312;9.246;2023-02-28T15:43:18;13.60;;;7.75;;
1753;SDS011;58380;48.312;9.246;2023-02-28T15:46:04;14.05;;;7.72;;
1753;SDS011;58380;48.312;9.246;2023-02-28T15:48:36;13.70;;;7.53;;
1753;SDS011;58380;48.312;9.246;2023-02-28T15:54:00;12.50;;;7.40;;
1753;SDS011;58380;48.312;9.246;2023-02-28T15:56:31;14.70;;;7.72;;
1753;SDS011;58380;48.312;9.246;2023-02-28T15:59:07;13.60;;;7.63;;
1753;SDS011;58380;48.312;9.246;2023-02-28T16:01:40;16.27;;;7.90;;
1753;SDS011;58380;48.312;9.246;2023-02-28T16:04:16;17.23;;;7.83;;
1753;SDS011;58380;48.312;9.246;2023-02-28T16:06:45;18.55;;;8.25;;
1753;SDS011;58380;48.312;9.246;2023-02-28T16:09:26;14.85;;;8.10;;
1753;SDS011;58380;48.312;9.246;2023-02-28T16:14:22;19.52;;;7.38;;
1753;SDS011;58380;48.312;9.246;2023-02-28T16:16:53;13.60;;;7.28;;
1753;SDS011;58380;48.312;9.246;2023-02-28T16:19:21;16.10;;;7.63;;
1753;SDS011;58380;48.312;9.246;2023-02-28T16:21:48;15.40;;;7.82;;
1753;SDS011;58380;48.312;9.246;2023-02-28T16:24:14;14.05;;;7.07;;
1753;SDS011;58380;48.312;9.246;2023-02-28T16:26:40;15.03;;;8.23;;
1753;SDS011;58380;48.312;9.246;2023-02-28T16:29:11;16.48;;;8.00;;
1753;SDS011;58380;48.312;9.246;2023-02-28T16:31:54;13.50;;;7.43;;
1753;SDS011;58380;48.312;9.246;2023-02-28T16:34:19;14.82;;;7.88;;
1753;SDS011;58380;48.312;9.246;2023-02-28T16:36:46;16.60;;;7.93;;
1753;SDS011;58380;48.312;9.246;2023-02-28T16:39:15;14.88;;;8.32;;
1753;SDS011;58380;48.312;9.246;2023-02-28T16:41:44;13.70;;;7.37;;
1753;SDS011;58380;48.312;9.246;2023-02-28T16:44:24;16.67;;;7.68;;
1753;SDS011;58380;48.312;9.246;2023-02-28T16:46:54;15.00;;;7.88;;
1753;SDS011;58380;48.312;9.246;2023-02-28T16:49:20;13.98;;;7.85;;
1753;SDS011;58380;48.312;9.246;2023-02-28T16:51:45;12.53;;;7.20;;
1753;SDS011;58380;48.312;9.246;2023-02-28T16:54:11;17.90;;;7.78;;
1753;SDS011;58380;48.312;9.246;2023-02-28T16:56:37;14.03;;;7.20;;
1753;SDS011;58380;48.312;9.246;2023-02-28T16:59:09;14.80;;;7.80;;
1753;SDS011;58380;48.312;9.246;2023-02-28T17:01:36;12.73;;;7.57;;
1753;SDS011;58380;48.312;9.246;2023-02-28T17:04:02;15.33;;;7.07;;
1753;SDS011;58380;48.312;9.246;2023-02-28T17:06:28;15.53;;;7.67;;
1753;SDS011;58380;48.312;9.246;2023-02-28T17:08:55;14.80;;;7.40;;
1753;SDS011;58380;48.312;9.246;2023-02-28T17:11:23;14.90;;;7.45;;
1753;SDS011;58380;48.312;9.246;2023-02-28T17:13:49;17.30;;;7.03;;
1753;SDS011;58380;48.312;9.246;2023-02-28T17:16:20;11.98;;;7.13;;
1753;SDS011;58380;48.312;9.246;2023-02-28T17:18:59;16.08;;;7.07;;
1753;SDS011;58380;48.312;9.246;2023-02-28T17:21:28;14.05;;;6.95;;
1753;SDS011;58380;48.312;9.246;2023-02-28T17:23:55;13.35;;;7.20;;
1753;SDS011;58380;48.312;9.246;2023-02-28T17:26:21;13.55;;;7.05;;
1753;SDS011;58380;48.312;9.246;2023-02-28T17:28:49;14.10;;;7.25;;
1753;SDS011;58380;48.312;9.246;2023-02-28T17:31:17;13.68;;;6.43;;
1753;SDS011;58380;48.312;9.246;2023-02-28T17:33:43;17.95;;;7.10;;
1753;SDS011;58380;48.312;9.246;2023-02-28T17:36:13;11.95;;;6.53;;
1753;SDS011;58380;48.312;9.246;2023-02-28T17:38:41;13.40;;;6.97;;
1753;SDS011;58380;48.312;9.246;2023-02-28T17:41:10;14.95;;;7.40;;
1753;SDS011;58380;48.312;9.246;2023-02-28T17:43:37;21.05;;;10.60;;
1753;SDS011;58380;48.312;9.246;2023-02-28T17:46:02;19.80;;;9.25;;
1753;SDS011;58380;48.312;9.246;2023-02-28T17:48:30;18.15;;;8.90;;
1753;SDS011;58380;48.312;9.246;2023-02-28T17:53:21;12.60;;;6.15;;
1753;SDS011;58380;48.312;9.246;2023-02-28T17:55:48;12.75;;;6.55;;
1753;SDS011;58380;48.312;9.246;2023-02-28T17:58:14;13.55;;;6.72;;
1753;SDS011;58380;48.312;9.246;2023-02-28T18:00:39;18.17;;;7.50;;
1753;SDS011;58380;48.312;9.246;2023-02-28T18:03:05;13.10;;;6.40;;
1753;SDS011;58380;48.312;9.246;2023-02-28T18:05:31;12.10;;;6.68;;
1753;SDS011;58380;48.312;9.246;2023-02-28T18:07:57;13.25;;;5.97;;
1753;SDS011;58380;48.312;9.246;2023-02-28T18:10:23;12.82;;;6.05;;
1753;SDS011;58380;48.312;9.246;2023-02-28T18:12:49;17.45;;;6.78;;
1753;SDS011;58380;48.312;9.246;2023-02-28T18:15:17;14.70;;;6.72;;
1753;SDS011;58380;48.312;9.246;2023-02-28T18:17:45;12.80;;;6.30;;
1753;SDS011;58380;48.312;9.246;2023-02-28T18:20:12;12.13;;;6.45;;
1753;SDS011;58380;48.312;9.246;2023-02-28T18:22:38;10.87;;;6.13;;
1753;SDS011;58380;48.312;9.246;2023-02-28T18:25:06;12.32;;;6.10;;
1753;SDS011;58380;48.312;9.246;2023-02-28T18:27:38;15.23;;;6.07;;
1753;SDS011;58380;48.312;9.246;2023-02-28T18:30:04;11.63;;;6.07;;
1753;SDS011;58380;48.312;9.246;2023-02-28T18:34:55;12.55;;;6.28;;
1753;SDS011;58380;48.312;9.246;2023-02-28T18:37:21;12.30;;;6.70;;
1753;SDS011;58380;48.312;9.246;2023-02-28T18:39:47;12.77;;;6.43;;
1753;SDS011;58380;48.312;9.246;2023-02-28T18:42:12;15.00;;;6.65;;
1753;SDS011;58380;48.312;9.246;2023-02-28T18:44:38;17.30;;;6.97;;
1753;SDS011;58380;48.312;9.246;2023-02-28T18:47:03;22.47;;;9.27;;
1753;SDS011;58380;48.312;9.246;2023-02-28T18:49:32;21.93;;;9.93;;
1753;SDS011;58380;48.312;9.246;2023-02-28T18:51:59;17.60;;;7.90;;
1753;SDS011;58380;48.312;9.246;2023-02-28T18:54:25;13.05;;;7.13;;
1753;SDS011;58380;48.312;9.246;2023-02-28T18:56:51;12.95;;;7.03;;
1753;SDS011;58380;48.312;9.246;2023-02-28T19:01:43;13.07;;;7.03;;
1753;SDS011;58380;48.312;9.246;2023-02-28T19:04:11;14.35;;;6.82;;
1753;SDS011;58380;48.312;9.246;2023-02-28T19:06:37;11.57;;;6.65;;
1753;SDS011;58380;48.312;9.246;2023-02-28T19:09:04;12.45;;;6.57;;
1753;SDS011;58380;48.312;9.246;2023-02-28T19:13:56;15.18;;;6.57;;
1753;SDS011;58380;48.312;9.246;2023-02-28T19:16:22;12.60;;;6.35;;
1753;SDS011;58380;48.312;9.246;2023-02-28T19:18:49;13.50;;;6.15;;
1753;SDS011;58380;48.312;9.246;2023-02-28T19:21:15;11.90;;;6.60;;
1753;SDS011;58380;48.312;9.246;2023-02-28T19:23:43;12.82;;;6.53;;
1753;SDS011;58380;48.312;9.246;2023-02-28T19:26:19;13.73;;;6.00;;
1753;SDS011;58380;48.312;9.246;2023-02-28T19:28:48;13.00;;;6.05;;
1753;SDS011;58380;48.312;9.246;2023-02-28T19:31:14;14.00;;;5.65;;
1753;SDS011;58380;48.312;9.246;2023-02-28T19:33:49;11.87;;;6.27;;
1753;SDS011;58380;48.312;9.246;2023-02-28T19:36:16;14.43;;;6.40;;
1753;SDS011;58380;48.312;9.246;2023-02-28T19:38:42;16.50;;;7.28;;
1753;SDS011;58380;48.312;9.246;2023-02-28T19:41:11;17.77;;;6.78;;
1753;SDS011;58380;48.312;9.246;2023-02-28T19:43:39;14.70;;;7.05;;
1753;SDS011;58380;48.312;9.246;2023-02-28T19:46:05;20.05;;;6.95;;
1753;SDS011;58380;48.312;9.246;2023-02-28T19:48:33;11.23;;;6.18;;
1753;SDS011;58380;48.312;9.246;2023-02-28T19:51:00;15.00;;;6.78;;
1753;SDS011;58380;48.312;9.246;2023-02-28T19:53:29;13.85;;;7.90;;
1753;SDS011;58380;48.312;9.246;2023-02-28T19:55:56;12.68;;;6.35;;
1753;SDS011;58380;48.312;9.246;2023-02-28T19:58:22;13.55;;;6.10;;
1753;SDS011;58380;48.312;9.246;2023-02-28T20:00:48;13.93;;;6.90;;
1753;SDS011;58380;48.312;9.246;2023-02-28T20:03:14;15.98;;;7.05;;
1753;SDS011;58380;48.312;9.246;2023-02-28T20:05:42;13.77;;;6.07;;
1753;SDS011;58380;48.312;9.246;2023-02-28T20:08:07;12.05;;;6.50;;
1753;SDS011;58380;48.312;9.246;2023-02-28T20:10:33;15.53;;;6.93;;
1753;SDS011;58380;48.312;9.246;2023-02-28T20:12:59;16.23;;;6.85;;
1753;SDS011;58380;48.312;9.246;2023-02-28T20:15:25;14.93;;;7.27;;
1753;SDS011;58380;48.312;9.246;2023-02-28T20:17:52;14.20;;;7.47;;
1753;SDS011;58380;48.312;9.246;2023-02-28T20:20:17;13.47;;;7.33;;
1753;SDS011;58380;48.312;9.246;2023-02-28T20:22:43;16.70;;;7.80;;
1753;SDS011;58380;48.312;9.246;2023-02-28T20:25:09;14.48;;;7.13;;
1753;SDS011;58380;48.312;9.246;2023-02-28T20:27:35;17.02;;;7.15;;
1753;SDS011;58380;48.312;9.246;2023-02-28T20:30:01;14.38;;;7.47;;
1753;SDS011;58380;48.312;9.246;2023-02-28T20:32:27;13.85;;;7.50;;
1753;SDS011;58380;48.312;9.246;2023-02-28T20:34:53;15.67;;;7.30;;
1753;SDS011;58380;48.312;9.246;2023-02-28T20:37:18;15.07;;;7.87;;
1753;SDS011;58380;48.312;9.246;2023-02-28T20:39:43;13.83;;;7.50;;
1753;SDS011;58380;48.312;9.246;2023-02-28T20:42:09;17.03;;;8.03;;
1753;SDS011;58380;48.312;9.246;2023-02-28T20:44:35;13.25;;;7.63;;
1753;SDS011;58380;48.312;9.246;2023-02-28T20:47:00;13.65;;;7.82;;
1753;SDS011;58380;48.312;9.246;2023-02-28T20:49:26;17.23;;;8.70;;
1753;SDS011;58380;48.312;9.246;2023-02-28T20:51:51;19.67;;;8.63;;
1753;SDS011;58380;48.312;9.246;2023-02-28T20:54:17;17.40;;;8.63;;
1753;SDS011;58380;48.312;9.246;2023-02-28T20:56:42;16.03;;;7.90;;
1753;SDS011;58380;48.312;9.246;2023-02-28T20:59:11;15.60;;;8.45;;
1753;SDS011;58380;48.312;9.246;2023-02-28T21:01:37;18.38;;;8.25;;
1753;SDS011;58380;48.312;9.246;2023-02-28T21:04:05;15.70;;;8.57;;
1753;SDS011;58380;48.312;9.246;2023-02-28T21:06:33;17.23;;;8.35;;
1753;SDS011;58380;48.312;9.246;2023-02-28T21:09:06;15.75;;;7.57;;
1753;SDS011;58380;48.312;9.246;2023-02-28T21:11:34;15.05;;;8.23;;
1753;SDS011;58380;48.312;9.246;2023-02-28T21:14:10;15.77;;;7.95;;
1753;SDS011;58380;48.312;9.246;2023-02-28T21:16:39;21.08;;;8.25;;
1753;SDS011;58380;48.312;9.246;2023-02-28T21:19:05;17.38;;;8.38;;
1753;SDS011;58380;48.312;9.246;2023-02-28T21:21:31;15.70;;;8.43;;
1753;SDS011;58380;48.312;9.246;2023-02-28T21:24:03;15.52;;;8.13;;
1753;SDS011;58380;48.312;9.246;2023-02-28T21:26:29;16.05;;;8.85;;
1753;SDS011;58380;48.312;9.246;2023-02-28T21:28:59;16.15;;;8.63;;
1753;SDS011;58380;48.312;9.246;2023-02-28T21:31:27;18.60;;;9.10;;
1753;SDS011;58380;48.312;9.246;2023-02-28T21:33:58;15.23;;;8.20;;
1753;SDS011;58380;48.312;9.246;2023-02-28T21:36:27;19.15;;;8.68;;
1753;SDS011;58380;48.312;9.246;2023-02-28T21:38:57;18.20;;;9.45;;
1753;SDS011;58380;48.312;9.246;2023-02-28T21:41:26;15.95;;;8.13;;
1753;SDS011;58380;48.312;9.246;2023-02-28T21:43:53;18.63;;;8.52;;
1753;SDS011;58380;48.312;9.246;2023-02-28T21:46:21;17.48;;;8.85;;
1753;SDS011;58380;48.312;9.246;2023-02-28T21:48:50;18.17;;;8.50;;
1753;SDS011;58380;48.312;9.246;2023-02-28T21:51:17;15.32;;;8.75;;
1753;SDS011;58380;48.312;9.246;2023-02-28T21:53:49;19.83;;;9.32;;
1753;SDS011;58380;48.312;9.246;2023-02-28T21:56:16;18.95;;;9.30;;
1753;SDS011;58380;48.312;9.246;2023-02-28T21:58:48;15.18;;;7.85;;
1753;SDS011;58380;48.312;9.246;2023-02-28T22:01:16;18.33;;;8.40;;
1753;SDS011;58380;48.312;9.246;2023-02-28T22:03:45;16.63;;;8.15;;
1753;SDS011;58380;48.312;9.246;2023-02-28T22:06:13;15.98;;;8.45;;
1753;SDS011;58380;48.312;9.246;2023-02-28T22:08:47;16.65;;;8.45;;
1753;SDS011;58380;48.312;9.246;2023-02-28T22:11:15;18.38;;;9.13;;
1753;SDS011;58380;48.312;9.246;2023-02-28T22:16:12;16.90;;;9.32;;
1753;SDS011;58380;48.312;9.246;2023-02-28T22:18:42;19.75;;;10.07;;
1753;SDS011;58380;48.312;9.246;2023-02-28T22:21:10;15.75;;;9.15;;
1753;SDS011;58380;48.312;9.246;2023-02-28T22:23:38;19.75;;;8.52;;
1753;SDS011;58380;48.312;9.246;2023-02-28T22:26:07;18.67;;;9.73;;
1753;SDS011;58380;48.312;9.246;2023-02-28T22:28:35;16.35;;;8.40;;
1753;SDS011;58380;48.312;9.246;2023-02-28T22:31:11;16.52;;;8.93;;
1753;SDS011;58380;48.312;9.246;2023-02-28T22:33:44;14.55;;;8.18;;
1753;SDS011;58380;48.312;9.246;2023-02-28T22:36:14;21.15;;;10.15;;
1753;SDS011;58380;48.312;9.246;2023-02-28T22:38:42;17.65;;;9.07;;
1753;SDS011;58380;48.312;9.246;2023-02-28T22:41:09;19.65;;;9.70;;
1753;SDS011;58380;48.312;9.246;2023-02-28T22:43:37;16.90;;;8.93;;
1753;SDS011;58380;48.312;9.246;2023-02-28T22:46:05;24.25;;;10.80;;
1753;SDS011;58380;48.312;9.246;2023-02-28T22:48:33;23.35;;;11.55;;
1753;SDS011;58380;48.312;9.246;2023-02-28T22:51:03;20.00;;;10.00;;
1753;SDS011;58380;48.312;9.246;2023-02-28T22:53:37;19.63;;;10.10;;
